createdAt,value
2019-04-20T00:00:52.661Z,0.00
2019-04-20T00:01:47.426Z,0.00
2019-04-20T00:02:51.155Z,0.00
2019-04-20T00:03:49.055Z,0.00
2019-04-20T00:04:47.274Z,0.00
2019-04-20T00:05:46.370Z,0.00
2019-04-20T00:06:50.963Z,0.00
2019-04-20T00:07:48.086Z,0.00
2019-04-20T00:08:47.551Z,0.00
2019-04-20T00:09:55.435Z,0.00
2019-04-20T00:10:55.070Z,0.00
2019-04-20T00:11:58.670Z,0.00
2019-04-20T00:13:01.004Z,0.00
2019-04-20T00:13:55.792Z,0.00
2019-04-20T00:14:48.055Z,0.00
2019-04-20T00:15:47.227Z,0.00
2019-04-20T00:16:46.254Z,0.00
2019-04-20T00:17:52.421Z,0.00
2019-04-20T00:18:51.926Z,0.00
2019-04-20T00:19:52.442Z,0.00
2019-04-20T00:20:51.355Z,0.00
2019-04-20T00:21:56.166Z,0.00
2019-04-20T00:22:51.715Z,0.00
2019-04-20T00:23:48.641Z,0.00
2019-04-20T00:24:50.553Z,0.00
2019-04-20T00:25:54.792Z,0.00
2019-04-20T00:28:10.904Z,0.00
2019-04-20T00:29:07.100Z,0.00
2019-04-20T00:30:04.337Z,0.00
2019-04-20T00:31:07.212Z,0.00
2019-04-20T00:32:02.529Z,0.00
2019-04-20T00:32:58.546Z,0.00
2019-04-20T00:33:56.132Z,0.00
2019-04-20T00:34:48.614Z,0.00
2019-04-20T00:35:46.384Z,0.00
2019-04-20T00:36:47.337Z,0.00
2019-04-20T00:37:46.701Z,0.00
2019-04-20T00:38:51.561Z,0.00
2019-04-20T00:39:47.074Z,0.00
2019-04-20T00:40:50.569Z,0.00
2019-04-20T00:41:53.707Z,0.00
2019-04-20T00:42:51.981Z,0.00
2019-04-20T00:43:47.270Z,0.00
2019-04-20T00:44:54.972Z,0.00
2019-04-20T00:45:53.696Z,0.00
2019-04-20T00:47:00.768Z,0.00
2019-04-20T00:47:54.239Z,0.00
2019-04-20T00:48:55.994Z,0.00
2019-04-20T00:49:57.808Z,0.00
2019-04-20T00:51:00.916Z,0.00
2019-04-20T00:52:13.115Z,0.00
2019-04-20T00:53:01.736Z,0.00
2019-04-20T00:53:51.217Z,0.00
2019-04-20T00:54:47.321Z,0.00
2019-04-20T00:55:46.380Z,0.00
2019-04-20T00:56:45.839Z,0.00
2019-04-20T00:57:53.041Z,0.00
2019-04-20T00:58:58.133Z,0.00
2019-04-20T01:00:09.007Z,0.00
2019-04-20T01:01:11.537Z,0.00
2019-04-20T01:02:04.017Z,0.00
2019-04-20T01:03:02.607Z,0.00
2019-04-20T01:04:15.360Z,0.00
2019-04-20T01:05:06.847Z,0.00
2019-04-20T01:06:08.651Z,0.00
2019-04-20T01:06:57.628Z,0.00
2019-04-20T01:07:52.105Z,0.00
2019-04-20T01:08:46.708Z,0.00
2019-04-20T01:09:45.680Z,0.00
2019-04-20T01:10:50.201Z,0.00
2019-04-20T01:11:48.593Z,0.00
2019-04-20T01:12:45.856Z,0.00
2019-04-20T01:13:50.857Z,0.00
2019-04-20T01:14:53.537Z,0.00
2019-04-20T01:15:55.384Z,0.00
2019-04-20T01:16:54.937Z,0.00
2019-04-20T01:17:46.594Z,0.00
2019-04-20T01:18:47.200Z,0.00
2019-04-20T01:19:48.812Z,0.00
2019-04-20T01:20:47.353Z,0.00
2019-04-20T01:21:54.514Z,0.00
2019-04-20T01:22:56.762Z,0.00
2019-04-20T01:23:53.275Z,0.00
2019-04-20T01:24:48.616Z,0.00
2019-04-20T01:25:48.285Z,0.00
2019-04-20T01:26:52.295Z,0.00
2019-04-20T01:28:05.472Z,0.00
2019-04-20T01:28:58.472Z,0.00
2019-04-20T01:29:51.534Z,0.00
2019-04-20T01:30:59.990Z,0.00
2019-04-20T01:33:00.197Z,0.00
2019-04-20T01:33:57.721Z,0.00
2019-04-20T01:34:55.117Z,0.00
2019-04-20T01:36:09.022Z,0.00
2019-04-20T01:37:04.523Z,4.00
2019-04-20T01:38:09.891Z,4.00
2019-04-20T01:38:58.914Z,4.00
2019-04-20T01:39:52.151Z,4.00
2019-04-20T01:40:46.498Z,4.00
2019-04-20T01:41:45.501Z,0.00
2019-04-20T01:42:46.380Z,0.00
2019-04-20T01:43:46.166Z,4.00
2019-04-20T01:44:49.158Z,4.00
2019-04-20T01:45:47.609Z,4.00
2019-04-20T01:46:49.873Z,4.00
2019-04-20T01:47:52.372Z,4.00
2019-04-20T01:48:46.376Z,4.00
2019-04-20T01:49:47.775Z,4.00
2019-04-20T01:50:54.821Z,4.00
2019-04-20T01:51:59.218Z,4.00
2019-04-20T01:52:57.771Z,8.00
2019-04-20T01:54:00.831Z,4.00
2019-04-20T01:55:04.829Z,8.00
2019-04-20T01:56:01.410Z,8.00
2019-04-20T01:56:59.640Z,8.00
2019-04-20T01:58:06.351Z,8.00
2019-04-20T01:59:06.049Z,8.00
2019-04-20T02:00:49.157Z,12.00
2019-04-20T02:01:45.952Z,16.00
2019-04-20T02:02:50.399Z,16.00
2019-04-20T02:03:48.958Z,16.00
2019-04-20T02:04:50.271Z,20.00
2019-04-20T02:05:53.057Z,24.00
2019-04-20T02:06:50.338Z,28.00
2019-04-20T02:08:59.360Z,32.00
2019-04-20T02:09:59.907Z,32.00
2019-04-20T02:10:59.204Z,36.00
2019-04-20T02:12:05.009Z,40.00
2019-04-20T02:12:59.589Z,44.00
2019-04-20T02:14:00.404Z,52.00
2019-04-20T02:15:00.499Z,56.00
2019-04-20T02:15:59.034Z,64.00
2019-04-20T02:17:04.508Z,68.00
2019-04-20T02:18:10.254Z,76.00
2019-04-20T02:19:10.796Z,84.00
2019-04-20T02:20:17.102Z,92.00
2019-04-20T02:21:15.156Z,100.00
2019-04-20T02:22:12.654Z,112.00
2019-04-20T02:23:13.885Z,120.00
2019-04-20T02:24:00.622Z,132.00
2019-04-20T02:24:55.690Z,144.00
2019-04-20T02:25:54.670Z,156.00
2019-04-20T02:26:55.700Z,168.00
2019-04-20T02:28:07.604Z,184.00
2019-04-20T02:29:20.244Z,196.00
2019-04-20T02:30:23.889Z,212.00
2019-04-20T02:31:34.310Z,228.00
2019-04-20T02:32:23.599Z,244.00
2019-04-20T02:33:34.790Z,260.00
2019-04-20T02:34:33.564Z,280.00
2019-04-20T02:35:30.222Z,296.00
2019-04-20T02:37:44.997Z,344.00
2019-04-20T02:38:36.848Z,360.00
2019-04-20T02:41:23.643Z,432.00
2019-04-20T02:43:15.199Z,484.00
2019-04-20T02:44:24.142Z,508.00
2019-04-20T02:45:27.723Z,536.00
2019-04-20T02:46:15.533Z,564.00
2019-04-20T02:47:26.875Z,592.00
2019-04-20T02:48:13.484Z,620.00
2019-04-20T02:49:35.412Z,652.00
2019-04-20T02:51:16.608Z,712.00
2019-04-20T02:52:21.110Z,744.00
2019-04-20T02:53:22.058Z,772.00
2019-04-20T02:54:26.054Z,808.00
2019-04-20T02:55:14.488Z,836.00
2019-04-20T02:56:29.615Z,872.00
2019-04-20T02:58:20.502Z,940.00
2019-04-20T03:00:13.328Z,1000.00
2019-04-20T03:01:11.924Z,1036.00
2019-04-20T03:02:09.061Z,1068.00
2019-04-20T03:02:57.264Z,1104.00
2019-04-20T03:03:51.163Z,1132.00
2019-04-20T03:04:56.153Z,1168.00
2019-04-20T03:06:01.323Z,1200.00
2019-04-20T03:07:04.199Z,1236.00
2019-04-20T03:08:04.633Z,1272.00
2019-04-20T03:09:11.331Z,1304.00
2019-04-20T03:10:05.497Z,1336.00
2019-04-20T03:11:08.989Z,1368.00
2019-04-20T03:13:14.481Z,1444.00
2019-04-20T03:14:13.730Z,1476.00
2019-04-20T03:15:09.689Z,1508.00
2019-04-20T03:16:16.481Z,1544.00
2019-04-20T03:18:14.067Z,1604.00
2019-04-20T03:19:13.013Z,1636.00
2019-04-20T03:20:18.831Z,1664.00
2019-04-20T03:21:21.434Z,1704.00
2019-04-20T03:22:24.651Z,1728.00
2019-04-20T03:23:35.355Z,1756.00
2019-04-20T03:24:23.827Z,1788.00
2019-04-20T03:25:17.933Z,1816.00
2019-04-20T03:26:17.622Z,1848.00
2019-04-20T03:27:14.528Z,1876.00
2019-04-20T03:28:15.506Z,1908.00
2019-04-20T03:29:10.135Z,1936.00
2019-04-20T03:30:40.659Z,1968.00
2019-04-20T03:32:40.201Z,2024.00
2019-04-20T03:33:31.425Z,2052.00
2019-04-20T03:35:20.857Z,2112.00
2019-04-20T03:36:26.795Z,2140.00
2019-04-20T03:37:20.401Z,2164.00
2019-04-20T03:38:16.957Z,2196.00
2019-04-20T03:39:13.846Z,2224.00
2019-04-20T03:40:11.260Z,2256.00
2019-04-20T03:41:08.586Z,2288.00
2019-04-20T03:41:56.750Z,2320.00
2019-04-20T03:42:54.896Z,2348.00
2019-04-20T03:44:01.037Z,2372.00
2019-04-20T03:45:07.603Z,2400.00
2019-04-20T03:46:02.594Z,2432.00
2019-04-20T03:46:59.702Z,2460.00
2019-04-20T03:48:06.157Z,2488.00
2019-04-20T03:49:17.179Z,2516.00
2019-04-20T03:50:18.024Z,2540.00
2019-04-20T03:51:14.817Z,2568.00
2019-04-20T03:52:13.250Z,2596.00
2019-04-20T03:53:19.823Z,2620.00
2019-04-20T03:54:12.184Z,2644.00
2019-04-20T03:55:18.145Z,2676.00
2019-04-20T03:56:21.596Z,2692.00
2019-04-20T03:57:23.591Z,2724.00
2019-04-20T03:58:14.341Z,2744.00
2019-04-20T03:59:08.681Z,2764.00
2019-04-20T04:00:09.949Z,2788.00
2019-04-20T04:01:19.904Z,2812.00
2019-04-20T04:02:35.139Z,2836.00
2019-04-20T04:03:21.407Z,2856.00
2019-04-20T04:04:16.864Z,2880.00
2019-04-20T04:05:13.963Z,2904.00
2019-04-20T04:06:05.463Z,2924.00
2019-04-20T04:06:59.552Z,2944.00
2019-04-20T04:08:09.166Z,2964.00
2019-04-20T04:09:08.941Z,2980.00
2019-04-20T04:10:10.969Z,3000.00
2019-04-20T04:11:12.336Z,3024.00
2019-04-20T04:12:05.723Z,3040.00
2019-04-20T04:12:54.805Z,3068.00
2019-04-20T04:13:54.626Z,3088.00
2019-04-20T04:14:53.742Z,3100.00
2019-04-20T04:15:59.255Z,3116.00
2019-04-20T04:18:11.087Z,3160.00
2019-04-20T04:19:15.375Z,3180.00
2019-04-20T04:20:10.979Z,3204.00
2019-04-20T04:21:09.853Z,3224.00
2019-04-20T04:22:19.252Z,3244.00
2019-04-20T04:23:24.600Z,3268.00
2019-04-20T04:24:18.706Z,3292.00
2019-04-20T04:25:17.068Z,3312.00
2019-04-20T04:26:22.014Z,3328.00
2019-04-20T04:27:18.565Z,3344.00
2019-04-20T04:28:21.292Z,3356.00
2019-04-20T04:29:28.824Z,3376.00
2019-04-20T04:30:18.086Z,3388.00
2019-04-20T04:31:21.053Z,3408.00
2019-04-20T04:32:24.549Z,3420.00
2019-04-20T04:33:50.478Z,3436.00
2019-04-20T04:34:23.826Z,3448.00
2019-04-20T04:35:19.004Z,3464.00
2019-04-20T04:36:22.245Z,3480.00
2019-04-20T04:37:24.193Z,3496.00
2019-04-20T04:38:30.090Z,3516.00
2019-04-20T04:39:25.185Z,3528.00
2019-04-20T04:40:31.680Z,3540.00
2019-04-20T04:42:27.964Z,3572.00
2019-04-20T04:43:27.037Z,3588.00
2019-04-20T04:44:19.193Z,3608.00
2019-04-20T04:45:08.095Z,3624.00
2019-04-20T04:46:05.838Z,3632.00
2019-04-20T04:47:07.061Z,3644.00
2019-04-20T04:48:06.789Z,3664.00
2019-04-20T04:50:18.442Z,3700.00
2019-04-20T04:51:21.215Z,3720.00
2019-04-20T04:52:17.934Z,3728.00
2019-04-20T04:53:28.812Z,3736.00
2019-04-20T04:54:26.888Z,3756.00
2019-04-20T04:55:25.947Z,3764.00
2019-04-20T04:56:18.361Z,3780.00
2019-04-20T04:57:15.653Z,3796.00
2019-04-20T04:58:13.312Z,3812.00
2019-04-20T04:59:13.272Z,3828.00
2019-04-20T05:00:19.992Z,3844.00
2019-04-20T05:01:21.755Z,3860.00
2019-04-20T05:02:14.252Z,3860.00
2019-04-20T05:03:31.076Z,3884.00
2019-04-20T05:04:31.707Z,3900.00
2019-04-20T05:05:37.016Z,3908.00
2019-04-20T05:06:31.846Z,3920.00
2019-04-20T05:07:31.182Z,3936.00
2019-04-20T05:08:23.408Z,3948.00
2019-04-20T05:09:16.780Z,3960.00
2019-04-20T05:10:14.043Z,3968.00
2019-04-20T05:11:13.274Z,3980.00
2019-04-20T05:12:19.672Z,3988.00
2019-04-20T05:13:14.119Z,4004.00
2019-04-20T05:14:19.317Z,4016.00
2019-04-20T05:15:28.210Z,4024.00
2019-04-20T05:16:37.407Z,4036.00
2019-04-20T05:17:34.262Z,4048.00
2019-04-20T05:18:43.513Z,4056.00
2019-04-20T05:19:38.191Z,4064.00
2019-04-20T05:20:35.320Z,4072.00
2019-04-20T05:22:41.652Z,4096.00
2019-04-20T05:23:35.464Z,4104.00
2019-04-20T05:24:38.950Z,4112.00
2019-04-20T05:25:50.918Z,4116.00
2019-04-20T05:26:44.560Z,4128.00
2019-04-20T05:27:46.668Z,4136.00
2019-04-20T05:28:33.439Z,4140.00
2019-04-20T05:29:29.310Z,4148.00
2019-04-20T05:30:24.560Z,4156.00
2019-04-20T05:31:30.937Z,4164.00
2019-04-20T05:32:36.237Z,4172.00
2019-04-20T05:33:34.344Z,4180.00
2019-04-20T05:34:45.299Z,4188.00
2019-04-20T05:35:43.412Z,4200.00
2019-04-20T05:36:46.221Z,4208.00
2019-04-20T05:37:51.314Z,4212.00
2019-04-20T05:38:47.013Z,4220.00
2019-04-20T05:39:44.758Z,4224.00
2019-04-20T05:40:47.652Z,4232.00
2019-04-20T05:41:41.931Z,4236.00
2019-04-20T05:43:45.695Z,4256.00
2019-04-20T05:44:48.609Z,4264.00
2019-04-20T05:45:39.934Z,4272.00
2019-04-20T05:46:42.525Z,4280.00
2019-04-20T05:47:42.893Z,4288.00
2019-04-20T05:48:45.844Z,4296.00
2019-04-20T05:49:40.324Z,4304.00
2019-04-20T05:50:46.245Z,4308.00
2019-04-20T05:51:43.296Z,4320.00
2019-04-20T05:52:53.894Z,4324.00
2019-04-20T05:53:45.419Z,4328.00
2019-04-20T05:55:46.485Z,4340.00
2019-04-20T05:57:42.736Z,4356.00
2019-04-20T05:58:44.821Z,4360.00
2019-04-20T05:59:51.576Z,4368.00
2019-04-20T06:00:49.861Z,4372.00
2019-04-20T06:01:48.932Z,4376.00
2019-04-20T06:02:45.151Z,4388.00
2019-04-20T06:03:45.121Z,4392.00
2019-04-20T06:04:59.978Z,4400.00
2019-04-20T06:05:53.487Z,4404.00
2019-04-20T06:06:45.259Z,4412.00
2019-04-20T06:07:42.392Z,4416.00
2019-04-20T06:08:53.808Z,4424.00
2019-04-20T06:09:46.333Z,4432.00
2019-04-20T06:10:45.619Z,4440.00
2019-04-20T06:12:01.424Z,4444.00
2019-04-20T06:12:41.280Z,4456.00
2019-04-20T06:13:37.870Z,4460.00
2019-04-20T06:14:40.544Z,4468.00
2019-04-20T06:15:43.216Z,4476.00
2019-04-20T06:16:52.200Z,4488.00
2019-04-20T06:17:46.155Z,4492.00
2019-04-20T06:18:38.078Z,4492.00
2019-04-20T06:19:39.739Z,4508.00
2019-04-20T06:21:12.098Z,4512.00
2019-04-20T06:21:42.650Z,4516.00
2019-04-20T06:22:43.771Z,4524.00
2019-04-20T06:23:54.188Z,4536.00
2019-04-20T06:24:53.162Z,4544.00
2019-04-20T06:25:55.917Z,4556.00
2019-04-20T06:26:56.555Z,4560.00
2019-04-20T06:27:46.738Z,4564.00
2019-04-20T06:28:40.020Z,4572.00
2019-04-20T06:29:41.408Z,4588.00
2019-04-20T06:30:39.300Z,4588.00
2019-04-20T06:31:48.644Z,4600.00
2019-04-20T06:32:44.216Z,4604.00
2019-04-20T06:34:05.547Z,4612.00
2019-04-20T06:34:58.496Z,4624.00
2019-04-20T06:36:03.688Z,4632.00
2019-04-20T06:36:47.138Z,4640.00
2019-04-20T06:37:44.154Z,4648.00
2019-04-20T06:39:02.723Z,4656.00
2019-04-20T06:39:46.520Z,4668.00
2019-04-20T06:40:54.171Z,4672.00
2019-04-20T06:42:02.384Z,4684.00
2019-04-20T06:42:39.847Z,4692.00
2019-04-20T06:43:46.226Z,4700.00
2019-04-20T06:44:45.786Z,4712.00
2019-04-20T06:45:51.136Z,4716.00
2019-04-20T06:46:54.248Z,4724.00
2019-04-20T06:47:46.110Z,4732.00
2019-04-20T06:48:47.039Z,4744.00
2019-04-20T06:49:42.216Z,4744.00
2019-04-20T06:50:38.732Z,4756.00
2019-04-20T06:51:47.385Z,4764.00
2019-04-20T06:52:37.453Z,4772.00
2019-04-20T06:53:44.998Z,4776.00
2019-04-20T06:54:45.131Z,4784.00
2019-04-20T06:55:49.764Z,4788.00
2019-04-20T06:56:41.768Z,4800.00
2019-04-20T06:57:47.138Z,4804.00
2019-04-20T06:58:50.934Z,4816.00
2019-04-20T06:59:45.832Z,4824.00
2019-04-20T07:00:41.970Z,4832.00
2019-04-20T07:01:52.990Z,4836.00
2019-04-20T07:02:44.204Z,4844.00
2019-04-20T07:04:18.740Z,4852.00
2019-04-20T07:04:47.501Z,4848.00
2019-04-20T07:05:47.805Z,4868.00
2019-04-20T07:06:54.869Z,4876.00
2019-04-20T07:07:47.635Z,4880.00
2019-04-20T07:09:58.324Z,4896.00
2019-04-20T07:10:45.160Z,4900.00
2019-04-20T07:11:42.570Z,4908.00
2019-04-20T07:12:36.916Z,4920.00
2019-04-20T07:13:35.689Z,4928.00
2019-04-20T07:14:36.667Z,4932.00
2019-04-20T07:15:36.423Z,4944.00
2019-04-20T07:16:45.116Z,4948.00
2019-04-20T07:18:42.554Z,4968.00
2019-04-20T07:19:40.309Z,4976.00
2019-04-20T07:20:52.594Z,4984.00
2019-04-20T07:21:52.568Z,4992.00
2019-04-20T07:22:46.551Z,5000.00
2019-04-20T07:23:48.252Z,5008.00
2019-04-20T07:24:48.704Z,5016.00
2019-04-20T07:25:37.567Z,5024.00
2019-04-20T07:26:46.360Z,5028.00
2019-04-20T07:27:43.238Z,5036.00
2019-04-20T07:28:49.971Z,5044.00
2019-04-20T07:29:46.085Z,5052.00
2019-04-20T07:30:52.161Z,5060.00
2019-04-20T07:31:39.361Z,5072.00
2019-04-20T07:32:48.597Z,5076.00
2019-04-20T07:33:51.198Z,5076.00
2019-04-20T07:34:43.428Z,5084.00
2019-04-20T07:35:40.428Z,5096.00
2019-04-20T07:36:51.559Z,5104.00
2019-04-20T07:38:49.970Z,5120.00
2019-04-20T07:39:46.225Z,5128.00
2019-04-20T07:40:38.334Z,5136.00
2019-04-20T07:41:50.496Z,5144.00
2019-04-20T07:42:49.493Z,5152.00
2019-04-20T07:43:52.975Z,5160.00
2019-04-20T07:44:49.888Z,5160.00
2019-04-20T07:45:36.581Z,5172.00
2019-04-20T07:46:54.519Z,5180.00
2019-04-20T07:47:49.241Z,5188.00
2019-04-20T07:48:42.203Z,5200.00
2019-04-20T07:49:41.996Z,5208.00
2019-04-20T07:50:37.590Z,5212.00
2019-04-20T07:51:29.640Z,5216.00
2019-04-20T07:52:36.938Z,5228.00
2019-04-20T07:53:36.201Z,5236.00
2019-04-20T07:54:47.593Z,5244.00
2019-04-20T07:55:58.175Z,5256.00
2019-04-20T07:56:42.454Z,5264.00
2019-04-20T07:57:39.165Z,5268.00
2019-04-20T07:58:30.706Z,5280.00
2019-04-20T07:59:32.529Z,5288.00
2019-04-20T08:00:48.472Z,5296.00
2019-04-20T08:01:52.714Z,5304.00
2019-04-20T08:02:50.240Z,5312.00
2019-04-20T08:03:47.084Z,5324.00
2019-04-20T08:04:36.785Z,5332.00
2019-04-20T08:05:33.647Z,5336.00
2019-04-20T08:06:33.099Z,5344.00
2019-04-20T08:07:35.178Z,5356.00
2019-04-20T08:08:37.648Z,5360.00
2019-04-20T08:09:34.205Z,5368.00
2019-04-20T08:10:42.915Z,5384.00
2019-04-20T08:11:52.553Z,5388.00
2019-04-20T08:12:43.858Z,5400.00
2019-04-20T08:13:45.781Z,5412.00
2019-04-20T08:14:52.161Z,5412.00
2019-04-20T08:16:49.086Z,5428.00
2019-04-20T08:18:44.010Z,5440.00
2019-04-20T08:19:39.709Z,5452.00
2019-04-20T08:20:39.366Z,5460.00
2019-04-20T08:21:40.900Z,5468.00
2019-04-20T08:22:42.157Z,5468.00
2019-04-20T08:23:44.476Z,5484.00
2019-04-20T08:24:37.162Z,5496.00
2019-04-20T08:25:32.731Z,5504.00
2019-04-20T08:26:29.973Z,5508.00
2019-04-20T08:27:21.823Z,5520.00
2019-04-20T08:28:29.217Z,5524.00
2019-04-20T08:29:41.755Z,5528.00
2019-04-20T08:30:38.855Z,5532.00
2019-04-20T08:31:35.782Z,5548.00
2019-04-20T08:32:38.854Z,5552.00
2019-04-20T08:33:42.667Z,5560.00
2019-04-20T08:34:47.504Z,5564.00
2019-04-20T08:35:47.509Z,5548.00
2019-04-20T08:36:47.727Z,5584.00
2019-04-20T08:37:48.936Z,5588.00
2019-04-20T08:40:43.646Z,5608.00
2019-04-20T08:41:46.402Z,5608.00
2019-04-20T08:43:47.116Z,5620.00
2019-04-20T08:44:53.722Z,5628.00
2019-04-20T08:46:53.335Z,5636.00
2019-04-20T08:47:49.919Z,5640.00
2019-04-20T08:48:43.395Z,5648.00
2019-04-20T08:49:45.519Z,5656.00
2019-04-20T08:50:41.448Z,5664.00
2019-04-20T08:51:49.979Z,5668.00
2019-04-20T08:53:44.987Z,5680.00
2019-04-20T08:54:34.631Z,5684.00
2019-04-20T08:55:40.138Z,5688.00
2019-04-20T08:56:31.805Z,5696.00
2019-04-20T08:57:22.545Z,5700.00
2019-04-20T08:58:20.478Z,5708.00
2019-04-20T08:59:21.053Z,5716.00
2019-04-20T09:00:30.916Z,5720.00
2019-04-20T09:01:28.251Z,5724.00
2019-04-20T09:02:22.095Z,5736.00
2019-04-20T09:03:28.479Z,5736.00
2019-04-20T09:04:33.748Z,5744.00
2019-04-20T09:05:35.002Z,5756.00
2019-04-20T09:06:40.747Z,5764.00
2019-04-20T09:07:25.150Z,5768.00
2019-04-20T09:08:28.060Z,5772.00
2019-04-20T09:09:56.467Z,5780.00
2019-04-20T09:10:54.355Z,5784.00
2019-04-20T09:11:45.188Z,5788.00
2019-04-20T09:12:39.293Z,5796.00
2019-04-20T09:13:29.965Z,5804.00
2019-04-20T09:14:23.140Z,5808.00
2019-04-20T09:15:21.122Z,5816.00
2019-04-20T09:16:28.921Z,5824.00
2019-04-20T09:17:27.303Z,5832.00
2019-04-20T09:18:25.994Z,5824.00
2019-04-20T09:19:29.953Z,5848.00
2019-04-20T09:20:31.887Z,5856.00
2019-04-20T09:21:32.285Z,5868.00
2019-04-20T09:22:33.172Z,5876.00
2019-04-20T09:23:36.331Z,5884.00
2019-04-20T09:24:43.516Z,5896.00
2019-04-20T09:26:37.526Z,5912.00
2019-04-20T09:27:33.983Z,5924.00
2019-04-20T09:28:28.485Z,5936.00
2019-04-20T09:29:35.796Z,5948.00
2019-04-20T09:30:32.023Z,5964.00
2019-04-20T09:31:35.965Z,5976.00
2019-04-20T09:32:34.304Z,5992.00
2019-04-20T09:33:43.655Z,6000.00
2019-04-20T09:34:41.723Z,6012.00
2019-04-20T09:35:38.711Z,6024.00
2019-04-20T09:36:32.588Z,6032.00
2019-04-20T09:37:43.321Z,6040.00
2019-04-20T09:38:40.811Z,6052.00
2019-04-20T09:39:30.400Z,6060.00
2019-04-20T09:40:46.137Z,6072.00
2019-04-20T09:41:45.249Z,6080.00
2019-04-20T09:42:20.999Z,6084.00
2019-04-20T09:43:20.167Z,6100.00
2019-04-20T09:44:20.125Z,6108.00
2019-04-20T09:45:27.764Z,6120.00
2019-04-20T09:46:22.247Z,6128.00
2019-04-20T09:47:29.454Z,6136.00
2019-04-20T09:48:31.814Z,6144.00
2019-04-20T09:49:37.758Z,6152.00
2019-04-20T09:50:38.785Z,6160.00
2019-04-20T09:51:40.321Z,6168.00
2019-04-20T09:52:31.244Z,6180.00
2019-04-20T09:53:33.862Z,6188.00
2019-04-20T09:54:36.096Z,6196.00
2019-04-20T09:55:32.877Z,6208.00
2019-04-20T09:56:36.601Z,6220.00
2019-04-20T09:57:41.964Z,6224.00
2019-04-20T09:58:32.054Z,6236.00
2019-04-20T09:59:39.949Z,6240.00
2019-04-20T10:00:37.341Z,6252.00
2019-04-20T10:01:31.125Z,6256.00
2019-04-20T10:02:24.908Z,6264.00
2019-04-20T10:03:20.774Z,6264.00
2019-04-20T10:04:19.766Z,6276.00
2019-04-20T10:05:19.856Z,6292.00
2019-04-20T10:06:24.968Z,6296.00
2019-04-20T10:07:24.256Z,6304.00
2019-04-20T10:08:21.869Z,6312.00
2019-04-20T10:09:26.779Z,6316.00
2019-04-20T10:11:30.014Z,6348.00
2019-04-20T10:12:31.280Z,6356.00
2019-04-20T10:13:30.159Z,6364.00
2019-04-20T10:14:31.031Z,6372.00
2019-04-20T10:15:31.314Z,6380.00
2019-04-20T10:16:29.934Z,6380.00
2019-04-20T10:17:31.785Z,6388.00
2019-04-20T10:18:30.073Z,6392.00
2019-04-20T10:19:33.893Z,6404.00
2019-04-20T10:20:34.468Z,6404.00
2019-04-20T10:21:31.878Z,6416.00
2019-04-20T10:22:30.866Z,6424.00
2019-04-20T10:23:30.326Z,6432.00
2019-04-20T10:24:30.662Z,6440.00
2019-04-20T10:25:30.847Z,6444.00
2019-04-20T10:26:30.299Z,6448.00
2019-04-20T10:27:30.649Z,6468.00
2019-04-20T10:28:29.825Z,6476.00
2019-04-20T10:29:31.214Z,6492.00
2019-04-20T10:30:30.585Z,6500.00
2019-04-20T10:31:30.744Z,6496.00
2019-04-20T10:32:34.217Z,6496.00
2019-04-20T10:33:31.364Z,6496.00
2019-04-20T10:34:30.581Z,6496.00
2019-04-20T10:35:29.821Z,6504.00
2019-04-20T10:36:29.868Z,6520.00
2019-04-20T10:37:29.700Z,6524.00
2019-04-20T10:38:33.702Z,6528.00
2019-04-20T10:39:30.810Z,6532.00
2019-04-20T10:40:44.811Z,6528.00
2019-04-20T10:41:40.918Z,6532.00
2019-04-20T10:43:38.966Z,6548.00
2019-04-20T10:44:39.013Z,6560.00
2019-04-20T10:45:39.205Z,6564.00
2019-04-20T10:46:38.991Z,6576.00
2019-04-20T10:47:39.047Z,6568.00
2019-04-20T10:48:45.908Z,6576.00
2019-04-20T10:49:40.856Z,6596.00
2019-04-20T10:50:39.014Z,6580.00
2019-04-20T10:51:39.947Z,6600.00
2019-04-20T10:52:38.821Z,6604.00
2019-04-20T10:53:40.297Z,6604.00
2019-04-20T10:54:38.810Z,6604.00
2019-04-20T10:55:39.737Z,6600.00
2019-04-20T10:56:39.400Z,6604.00
2019-04-20T10:57:39.682Z,6620.00
2019-04-20T10:58:39.953Z,6648.00
2019-04-20T10:59:39.411Z,6672.00
2019-04-20T11:00:39.698Z,6668.00
2019-04-20T11:01:39.991Z,6648.00
2019-04-20T11:02:39.623Z,6672.00
2019-04-20T11:03:38.705Z,6668.00
2019-04-20T11:04:38.841Z,6660.00
2019-04-20T11:05:38.673Z,6660.00
2019-04-20T11:06:38.731Z,6668.00
2019-04-20T11:07:38.806Z,6660.00
2019-04-20T11:08:38.659Z,6668.00
2019-04-20T11:09:38.801Z,6676.00
2019-04-20T11:10:52.135Z,6680.00
2019-04-20T11:11:40.720Z,6676.00
2019-04-20T11:12:38.598Z,6688.00
2019-04-20T11:13:39.360Z,6692.00
2019-04-20T11:14:41.950Z,6692.00
2019-04-20T11:15:46.388Z,6700.00
2019-04-20T11:16:38.558Z,6684.00
2019-04-20T11:17:39.481Z,6700.00
2019-04-20T11:18:39.734Z,6716.00
2019-04-20T11:19:39.250Z,6720.00
2019-04-20T11:20:39.427Z,6716.00
2019-04-20T11:21:38.740Z,6720.00
2019-04-20T11:22:38.494Z,6720.00
2019-04-20T11:23:38.492Z,6720.00
2019-04-20T11:24:38.691Z,6732.00
2019-04-20T11:25:38.477Z,6736.00
2019-04-20T11:26:40.547Z,6756.00
2019-04-20T11:27:38.514Z,6776.00
2019-04-20T11:28:38.432Z,6784.00
2019-04-20T11:29:38.434Z,6760.00
2019-04-20T11:30:38.430Z,6756.00
2019-04-20T11:31:42.233Z,6760.00
2019-04-20T11:32:40.230Z,6764.00
2019-04-20T11:33:38.458Z,6768.00
2019-04-20T11:34:40.252Z,6768.00
2019-04-20T11:35:41.619Z,6768.00
2019-04-20T11:36:39.340Z,6768.00
2019-04-20T11:37:39.361Z,6764.00
2019-04-20T11:38:38.701Z,6776.00
2019-04-20T11:39:39.112Z,6788.00
2019-04-20T11:40:39.159Z,6796.00
2019-04-20T11:41:38.973Z,6804.00
2019-04-20T11:42:39.384Z,6808.00
2019-04-20T11:43:39.758Z,6824.00
2019-04-20T11:44:38.327Z,6840.00
2019-04-20T11:45:38.546Z,6852.00
2019-04-20T11:46:38.766Z,6880.00
2019-04-20T11:47:47.340Z,6892.00
2019-04-20T11:48:39.432Z,6880.00
2019-04-20T11:49:39.434Z,6868.00
2019-04-20T11:50:38.195Z,6856.00
2019-04-20T11:51:39.451Z,6844.00
2019-04-20T11:52:41.363Z,6852.00
2019-04-20T11:53:40.370Z,6856.00
2019-04-20T11:54:38.144Z,6852.00
2019-04-20T11:55:38.345Z,6848.00
2019-04-20T11:56:40.817Z,6852.00
2019-04-20T11:57:39.573Z,6856.00
2019-04-20T11:58:38.828Z,6872.00
2019-04-20T11:59:39.090Z,6872.00
2019-04-20T12:00:45.845Z,6876.00
2019-04-20T12:01:49.243Z,6872.00
2019-04-20T12:02:42.516Z,6876.00
2019-04-20T12:03:50.657Z,6868.00
2019-04-20T12:04:47.211Z,6872.00
2019-04-20T12:05:44.492Z,6872.00
2019-04-20T12:06:39.214Z,6884.00
2019-04-20T12:07:38.156Z,6892.00
2019-04-20T12:08:40.512Z,6896.00
2019-04-20T12:09:37.983Z,6916.00
2019-04-20T12:10:39.195Z,6920.00
2019-04-20T12:11:53.336Z,6904.00
2019-04-20T12:12:42.494Z,6872.00
2019-04-20T12:13:38.932Z,6860.00
2019-04-20T12:14:38.826Z,6856.00
2019-04-20T12:15:38.903Z,6856.00
2019-04-20T12:16:37.903Z,6852.00
2019-04-20T12:17:37.917Z,6856.00
2019-04-20T12:18:38.014Z,6868.00
2019-04-20T12:19:45.954Z,6872.00
2019-04-20T12:20:38.959Z,6880.00
2019-04-20T12:21:39.073Z,6876.00
2019-04-20T12:22:37.842Z,6880.00
2019-04-20T12:23:38.240Z,6876.00
2019-04-20T12:24:38.200Z,6864.00
2019-04-20T12:25:39.420Z,6860.00
2019-04-20T12:26:38.661Z,6860.00
2019-04-20T12:27:41.947Z,6852.00
2019-04-20T12:28:40.083Z,6840.00
2019-04-20T12:29:38.657Z,6824.00
2019-04-20T12:30:37.752Z,6808.00
2019-04-20T12:31:37.762Z,6808.00
2019-04-20T12:32:42.900Z,6808.00
2019-04-20T12:33:40.060Z,6816.00
2019-04-20T12:34:39.075Z,6808.00
2019-04-20T12:35:38.427Z,6796.00
2019-04-20T12:36:37.689Z,6788.00
2019-04-20T12:37:38.959Z,6800.00
2019-04-20T12:38:39.040Z,6804.00
2019-04-20T12:39:37.661Z,6800.00
2019-04-20T12:40:37.999Z,6800.00
2019-04-20T12:41:45.276Z,6792.00
2019-04-20T12:42:39.124Z,6804.00
2019-04-20T12:43:38.109Z,6792.00
2019-04-20T12:44:37.745Z,6796.00
2019-04-20T12:45:37.845Z,6796.00
2019-04-20T12:46:38.237Z,6792.00
2019-04-20T12:47:37.579Z,6780.00
2019-04-20T12:48:37.787Z,6764.00
2019-04-20T12:49:37.865Z,6760.00
2019-04-20T12:50:37.555Z,6764.00
2019-04-20T12:51:52.620Z,6776.00
2019-04-20T12:52:38.734Z,6776.00
2019-04-20T12:53:38.355Z,6768.00
2019-04-20T12:54:40.792Z,6748.00